createdAt,value
2022-12-13T08:01:52.421Z,20.63
2022-12-13T08:04:20.628Z,21.17
2022-12-13T08:06:48.824Z,22.83
2022-12-13T08:09:17.097Z,22.33
2022-12-13T08:11:45.333Z,23.40
2022-12-13T08:14:13.551Z,24.20
2022-12-13T08:16:41.644Z,23.93
2022-12-13T08:19:11.488Z,26.20
2022-12-13T08:22:01.361Z,24.57
2022-12-13T08:24:31.812Z,23.77
2022-12-13T08:27:01.995Z,26.20
2022-12-13T08:29:33.489Z,25.37
2022-12-13T08:32:04.283Z,26.40
2022-12-13T08:34:33.880Z,24.60
2022-12-13T08:37:03.965Z,25.77
2022-12-13T08:39:35.371Z,24.77
2022-12-13T08:42:17.211Z,25.73
2022-12-13T08:44:47.530Z,23.70
2022-12-13T08:47:23.180Z,24.30
2022-12-13T08:49:55.163Z,24.83
2022-12-13T08:52:24.491Z,24.70
2022-12-13T08:54:52.775Z,24.43
2022-12-13T08:57:20.902Z,24.53
2022-12-13T08:59:49.203Z,24.13
2022-12-13T09:02:17.811Z,24.50
2022-12-13T09:04:46.048Z,23.77
2022-12-13T09:07:15.798Z,25.10
2022-12-13T09:09:43.846Z,23.80
2022-12-13T09:12:30.650Z,23.83
2022-12-13T09:15:01.691Z,22.83
2022-12-13T09:17:36.329Z,24.20
2022-12-13T09:20:09.930Z,23.47
2022-12-13T09:23:01.729Z,22.27
2022-12-13T09:25:36.607Z,21.43
2022-12-13T09:28:05.444Z,20.73
2022-12-13T09:30:33.491Z,22.17
2022-12-13T09:33:28.872Z,20.40
2022-12-13T09:35:49.718Z,20.50
2022-12-13T09:38:19.747Z,19.83
2022-12-13T09:40:50.244Z,19.40
2022-12-13T09:43:32.466Z,20.03
2022-12-13T09:46:13.454Z,18.90
2022-12-13T09:49:01.156Z,19.20
2022-12-13T09:51:44.109Z,19.53
2022-12-13T09:54:20.247Z,20.50
2022-12-13T09:56:50.934Z,18.90
2022-12-13T09:59:20.118Z,18.97
2022-12-13T10:01:48.356Z,20.50
2022-12-13T10:04:20.531Z,20.73
2022-12-13T10:06:52.081Z,20.87
2022-12-13T10:09:21.908Z,20.23
2022-12-13T10:11:51.792Z,18.53
2022-12-13T10:14:26.278Z,18.47
2022-12-13T10:16:57.895Z,19.93
2022-12-13T10:19:31.264Z,17.27
2022-12-13T10:22:01.877Z,19.27
2022-12-13T10:24:49.821Z,19.17
2022-12-13T10:27:20.177Z,18.80
2022-12-13T10:30:03.007Z,17.70
2022-12-13T10:32:37.637Z,18.10
2022-12-13T10:35:22.226Z,18.00
2022-12-13T10:37:50.521Z,17.27
2022-12-13T10:40:32.835Z,18.93
2022-12-13T10:43:09.350Z,17.10
2022-12-13T10:45:37.412Z,17.70
2022-12-13T10:48:06.238Z,17.67
2022-12-13T10:50:34.488Z,18.70
2022-12-13T10:53:02.710Z,18.53
2022-12-13T10:55:34.981Z,18.37
2022-12-13T10:58:07.155Z,17.37
2022-12-13T11:00:39.233Z,17.63
2022-12-13T11:03:08.990Z,16.67
2022-12-13T11:05:39.101Z,17.07
2022-12-13T11:08:21.639Z,17.43
2022-12-13T11:10:58.492Z,18.17
2022-12-13T11:13:34.975Z,18.27
2022-12-13T11:16:04.046Z,18.03
2022-12-13T11:18:38.688Z,18.33
2022-12-13T11:21:07.826Z,18.27
2022-12-13T11:23:39.125Z,19.03
2022-12-13T11:26:11.618Z,17.97
2022-12-13T11:29:05.670Z,18.97
2022-12-13T11:31:43.537Z,17.97
2022-12-13T11:34:24.030Z,17.27
2022-12-13T11:36:59.521Z,17.87
2022-12-13T11:39:32.038Z,17.50
2022-12-13T11:42:09.923Z,18.07
2022-12-13T11:44:48.229Z,17.83
2022-12-13T11:47:22.366Z,17.83
2022-12-13T11:49:50.816Z,18.37
2022-12-13T11:52:26.359Z,18.00
2022-12-13T11:54:59.457Z,17.47
2022-12-13T11:57:44.063Z,17.60
2022-12-13T12:00:33.558Z,18.90
2022-12-13T12:03:17.606Z,17.50
2022-12-13T12:05:56.084Z,17.83
2022-12-13T12:08:34.358Z,17.80
2022-12-13T12:11:10.102Z,17.57
2022-12-13T12:13:51.283Z,17.80
2022-12-13T12:16:29.824Z,17.53
2022-12-13T12:19:01.625Z,18.40
2022-12-13T12:22:12.033Z,17.53
2022-12-13T12:24:36.657Z,18.30
2022-12-13T12:27:22.789Z,17.83
2022-12-13T12:30:10.383Z,17.83
2022-12-13T12:32:46.168Z,17.80
2022-12-13T12:35:46.546Z,17.83
2022-12-13T12:38:30.654Z,18.50
2022-12-13T12:41:16.792Z,18.43
2022-12-13T12:43:46.298Z,17.97
2022-12-13T12:46:46.828Z,16.90
2022-12-13T12:49:51.712Z,18.20
2022-12-13T12:52:27.747Z,18.73
2022-12-13T12:55:04.361Z,18.80
2022-12-13T12:57:42.570Z,19.00
2022-12-13T13:00:13.590Z,19.33
2022-12-13T13:02:51.271Z,18.87
2022-12-13T13:05:23.440Z,18.60
2022-12-13T13:07:57.771Z,18.97
2022-12-13T13:10:27.501Z,18.83
2022-12-13T13:13:11.311Z,19.40
2022-12-13T13:15:58.182Z,19.03
2022-12-13T13:18:53.321Z,19.07
2022-12-13T13:21:38.951Z,18.57
2022-12-13T13:24:18.930Z,19.17
2022-12-13T13:26:48.884Z,18.80
2022-12-13T13:29:43.270Z,20.47
2022-12-13T13:32:30.259Z,19.13
2022-12-13T13:35:53.357Z,19.07
2022-12-13T13:38:45.028Z,17.50
2022-12-13T13:41:56.170Z,17.87
2022-12-13T13:44:35.845Z,18.70
2022-12-13T13:47:15.111Z,18.83
2022-12-13T13:50:01.762Z,18.47
2022-12-13T13:52:38.085Z,19.43
2022-12-13T13:55:40.606Z,19.93
2022-12-13T13:58:41.943Z,18.17
2022-12-13T14:01:51.053Z,18.93
2022-12-13T14:05:13.096Z,19.13
2022-12-13T14:07:58.642Z,19.27
2022-12-13T14:10:50.593Z,19.07
2022-12-13T14:14:02.028Z,19.93
2022-12-13T14:16:55.240Z,19.97
2022-12-13T14:20:09.887Z,20.63
2022-12-13T14:22:44.273Z,20.30
2022-12-13T14:25:50.967Z,19.83
2022-12-13T14:28:33.978Z,20.17
2022-12-13T14:31:02.300Z,20.27
2022-12-13T14:33:30.886Z,22.87
2022-12-13T14:36:00.136Z,21.53
2022-12-13T14:38:30.572Z,21.80
2022-12-13T14:41:01.989Z,19.77
2022-12-13T14:43:31.674Z,19.40
2022-12-13T14:46:01.822Z,21.27
2022-12-13T14:48:33.786Z,19.37
2022-12-13T14:51:01.992Z,21.30
2022-12-13T14:53:34.559Z,21.90
2022-12-13T14:56:09.955Z,21.70
